sensor_id;sensor_type;location;lat;lon;timestamp;P1;durP1;ratioP1;P2;durP2;ratioP2
40971;SDS011;26701;47.408;19.174;2023-08-12T00:00:29;804.47;;;748.60;;
40971;SDS011;26701;47.408;19.174;2023-08-12T00:02:55;803.67;;;748.17;;
40971;SDS011;26701;47.408;19.174;2023-08-12T00:05:21;805.53;;;749.70;;
40971;SDS011;26701;47.408;19.174;2023-08-12T00:07:48;801.28;;;745.47;;
40971;SDS011;26701;47.408;19.174;2023-08-12T00:10:14;801.70;;;745.63;;
40971;SDS011;26701;47.408;19.174;2023-08-12T00:12:41;804.97;;;748.50;;
40971;SDS011;26701;47.408;19.174;2023-08-12T00:15:07;795.03;;;738.80;;
40971;SDS011;26701;47.408;19.174;2023-08-12T00:17:35;791.55;;;735.53;;
40971;SDS011;26701;47.408;19.174;2023-08-12T00:20:03;792.33;;;736.28;;
40971;SDS011;26701;47.408;19.174;2023-08-12T00:22:34;799.55;;;743.08;;
40971;SDS011;26701;47.408;19.174;2023-08-12T00:25:00;798.58;;;741.17;;
40971;SDS011;26701;47.408;19.174;2023-08-12T00:27:26;798.08;;;741.28;;
40971;SDS011;26701;47.408;19.174;2023-08-12T00:29:52;789.95;;;734.00;;
40971;SDS011;26701;47.408;19.174;2023-08-12T00:32:18;786.42;;;730.53;;
40971;SDS011;26701;47.408;19.174;2023-08-12T00:34:44;787.55;;;731.63;;
40971;SDS011;26701;47.408;19.174;2023-08-12T00:37:10;799.55;;;742.78;;
40971;SDS011;26701;47.408;19.174;2023-08-12T00:39:36;793.22;;;736.53;;
40971;SDS011;26701;47.408;19.174;2023-08-12T00:42:02;792.22;;;735.00;;
40971;SDS011;26701;47.408;19.174;2023-08-12T00:44:28;791.25;;;733.67;;
40971;SDS011;26701;47.408;19.174;2023-08-12T00:46:54;796.63;;;739.47;;
40971;SDS011;26701;47.408;19.174;2023-08-12T00:49:21;790.08;;;732.78;;
40971;SDS011;26701;47.408;19.174;2023-08-12T00:51:48;798.95;;;741.50;;
40971;SDS011;26701;47.408;19.174;2023-08-12T00:54:15;792.55;;;735.03;;
40971;SDS011;26701;47.408;19.174;2023-08-12T00:56:42;794.67;;;737.42;;
40971;SDS011;26701;47.408;19.174;2023-08-12T00:59:09;794.67;;;737.20;;
40971;SDS011;26701;47.408;19.174;2023-08-12T01:01:39;791.03;;;734.35;;
40971;SDS011;26701;47.408;19.174;2023-08-12T01:04:09;790.83;;;734.47;;
40971;SDS011;26701;47.408;19.174;2023-08-12T01:06:35;789.10;;;732.22;;
40971;SDS011;26701;47.408;19.174;2023-08-12T01:09:05;792.05;;;734.80;;
40971;SDS011;26701;47.408;19.174;2023-08-12T01:16:42;785.35;;;728.55;;
40971;SDS011;26701;47.408;19.174;2023-08-12T01:19:10;781.78;;;723.50;;
40971;SDS011;26701;47.408;19.174;2023-08-12T01:21:40;785.25;;;727.75;;
40971;SDS011;26701;47.408;19.174;2023-08-12T01:24:08;786.45;;;729.20;;
40971;SDS011;26701;47.408;19.174;2023-08-12T01:26:35;782.88;;;725.85;;
40971;SDS011;26701;47.408;19.174;2023-08-12T01:29:01;785.28;;;728.00;;
40971;SDS011;26701;47.408;19.174;2023-08-12T01:31:34;783.78;;;726.63;;
40971;SDS011;26701;47.408;19.174;2023-08-12T01:34:11;782.83;;;724.72;;
40971;SDS011;26701;47.408;19.174;2023-08-12T01:36:44;778.00;;;719.28;;
40971;SDS011;26701;47.408;19.174;2023-08-12T01:39:15;777.58;;;718.60;;
40971;SDS011;26701;47.408;19.174;2023-08-12T01:41:43;770.37;;;712.20;;
40971;SDS011;26701;47.408;19.174;2023-08-12T01:44:10;776.15;;;717.67;;
40971;SDS011;26701;47.408;19.174;2023-08-12T01:46:36;773.25;;;715.15;;
40971;SDS011;26701;47.408;19.174;2023-08-12T01:49:02;766.72;;;709.80;;
40971;SDS011;26701;47.408;19.174;2023-08-12T01:51:28;763.28;;;706.08;;
40971;SDS011;26701;47.408;19.174;2023-08-12T01:53:54;773.13;;;715.03;;
40971;SDS011;26701;47.408;19.174;2023-08-12T01:56:20;769.75;;;711.00;;
40971;SDS011;26701;47.408;19.174;2023-08-12T01:58:47;760.63;;;703.15;;
40971;SDS011;26701;47.408;19.174;2023-08-12T02:01:12;756.75;;;700.25;;
40971;SDS011;26701;47.408;19.174;2023-08-12T02:03:38;754.67;;;698.65;;
40971;SDS011;26701;47.408;19.174;2023-08-12T02:06:05;757.83;;;701.72;;
40971;SDS011;26701;47.408;19.174;2023-08-12T02:08:33;764.08;;;706.25;;
40971;SDS011;26701;47.408;19.174;2023-08-12T02:10:59;766.80;;;709.25;;
40971;SDS011;26701;47.408;19.174;2023-08-12T02:13:25;761.80;;;705.20;;
40971;SDS011;26701;47.408;19.174;2023-08-12T02:15:51;767.35;;;709.83;;
40971;SDS011;26701;47.408;19.174;2023-08-12T02:18:17;758.85;;;700.85;;
40971;SDS011;26701;47.408;19.174;2023-08-12T02:20:43;767.47;;;710.10;;
40971;SDS011;26701;47.408;19.174;2023-08-12T02:23:09;751.03;;;695.78;;
40971;SDS011;26701;47.408;19.174;2023-08-12T02:25:36;744.53;;;690.35;;
40971;SDS011;26701;47.408;19.174;2023-08-12T02:28:02;743.30;;;688.42;;
40971;SDS011;26701;47.408;19.174;2023-08-12T02:30:28;748.83;;;693.58;;
40971;SDS011;26701;47.408;19.174;2023-08-12T02:32:55;739.92;;;685.55;;
40971;SDS011;26701;47.408;19.174;2023-08-12T02:35:23;744.03;;;689.17;;
40971;SDS011;26701;47.408;19.174;2023-08-12T02:37:49;742.08;;;688.08;;
40971;SDS011;26701;47.408;19.174;2023-08-12T02:40:15;747.95;;;693.47;;
40971;SDS011;26701;47.408;19.174;2023-08-12T02:42:41;742.22;;;688.38;;
40971;SDS011;26701;47.408;19.174;2023-08-12T02:45:07;743.28;;;689.35;;
40971;SDS011;26701;47.408;19.174;2023-08-12T02:47:33;744.78;;;690.35;;
40971;SDS011;26701;47.408;19.174;2023-08-12T02:49:59;737.75;;;683.17;;
40971;SDS011;26701;47.408;19.174;2023-08-12T02:52:25;738.72;;;683.88;;
40971;SDS011;26701;47.408;19.174;2023-08-12T02:54:51;736.60;;;681.78;;
40971;SDS011;26701;47.408;19.174;2023-08-12T02:57:17;741.85;;;686.65;;
40971;SDS011;26701;47.408;19.174;2023-08-12T02:59:43;744.45;;;688.88;;
40971;SDS011;26701;47.408;19.174;2023-08-12T03:02:09;743.53;;;688.05;;
40971;SDS011;26701;47.408;19.174;2023-08-12T03:04:35;740.13;;;684.75;;
40971;SDS011;26701;47.408;19.174;2023-08-12T03:07:01;753.38;;;697.13;;
40971;SDS011;26701;47.408;19.174;2023-08-12T03:09:28;740.13;;;684.45;;
40971;SDS011;26701;47.408;19.174;2023-08-12T03:11:54;741.38;;;685.30;;
40971;SDS011;26701;47.408;19.174;2023-08-12T03:14:21;748.90;;;692.80;;
40971;SDS011;26701;47.408;19.174;2023-08-12T03:16:47;741.00;;;685.33;;
40971;SDS011;26701;47.408;19.174;2023-08-12T03:19:13;741.58;;;684.47;;
40971;SDS011;26701;47.408;19.174;2023-08-12T03:21:39;746.35;;;688.67;;
40971;SDS011;26701;47.408;19.174;2023-08-12T03:24:06;746.20;;;685.55;;
40971;SDS011;26701;47.408;19.174;2023-08-12T03:26:32;748.42;;;687.33;;
40971;SDS011;26701;47.408;19.174;2023-08-12T03:28:58;747.72;;;688.05;;
40971;SDS011;26701;47.408;19.174;2023-08-12T03:31:25;759.97;;;696.55;;
40971;SDS011;26701;47.408;19.174;2023-08-12T03:33:52;753.60;;;690.50;;
40971;SDS011;26701;47.408;19.174;2023-08-12T03:36:19;747.50;;;684.30;;
40971;SDS011;26701;47.408;19.174;2023-08-12T03:38:45;737.17;;;681.50;;
40971;SDS011;26701;47.408;19.174;2023-08-12T03:41:16;743.47;;;687.28;;
40971;SDS011;26701;47.408;19.174;2023-08-12T03:43:42;739.50;;;682.78;;
40971;SDS011;26701;47.408;19.174;2023-08-12T03:46:09;739.92;;;685.00;;
40971;SDS011;26701;47.408;19.174;2023-08-12T03:48:36;741.90;;;685.97;;
40971;SDS011;26701;47.408;19.174;2023-08-12T03:51:02;740.20;;;685.40;;
40971;SDS011;26701;47.408;19.174;2023-08-12T03:53:28;739.72;;;684.20;;
40971;SDS011;26701;47.408;19.174;2023-08-12T03:55:55;753.45;;;693.10;;
40971;SDS011;26701;47.408;19.174;2023-08-12T03:58:21;746.90;;;688.00;;
40971;SDS011;26701;47.408;19.174;2023-08-12T04:00:48;746.83;;;686.05;;
40971;SDS011;26701;47.408;19.174;2023-08-12T04:03:15;745.13;;;684.65;;
40971;SDS011;26701;47.408;19.174;2023-08-12T04:05:48;748.72;;;688.30;;
40971;SDS011;26701;47.408;19.174;2023-08-12T04:08:19;733.40;;;679.35;;
40971;SDS011;26701;47.408;19.174;2023-08-12T04:10:45;738.40;;;684.28;;
40971;SDS011;26701;47.408;19.174;2023-08-12T04:13:13;742.88;;;688.70;;
40971;SDS011;26701;47.408;19.174;2023-08-12T04:15:39;735.40;;;683.10;;
40971;SDS011;26701;47.408;19.174;2023-08-12T04:18:05;737.42;;;684.33;;
40971;SDS011;26701;47.408;19.174;2023-08-12T04:20:33;738.15;;;684.80;;
40971;SDS011;26701;47.408;19.174;2023-08-12T04:22:59;739.90;;;687.05;;
40971;SDS011;26701;47.408;19.174;2023-08-12T04:25:25;745.03;;;691.88;;
40971;SDS011;26701;47.408;19.174;2023-08-12T04:27:51;743.40;;;690.83;;
40971;SDS011;26701;47.408;19.174;2023-08-12T04:30:19;750.35;;;697.80;;
40971;SDS011;26701;47.408;19.174;2023-08-12T04:32:46;744.17;;;691.60;;
40971;SDS011;26701;47.408;19.174;2023-08-12T04:35:12;750.13;;;697.78;;
40971;SDS011;26701;47.408;19.174;2023-08-12T04:37:38;742.35;;;690.63;;
40971;SDS011;26701;47.408;19.174;2023-08-12T04:40:07;739.53;;;688.60;;
40971;SDS011;26701;47.408;19.174;2023-08-12T04:42:33;737.53;;;686.50;;
40971;SDS011;26701;47.408;19.174;2023-08-12T04:44:59;739.10;;;688.15;;
40971;SDS011;26701;47.408;19.174;2023-08-12T04:47:29;738.03;;;687.10;;
40971;SDS011;26701;47.408;19.174;2023-08-12T04:49:55;746.92;;;695.80;;
40971;SDS011;26701;47.408;19.174;2023-08-12T04:52:22;747.05;;;695.45;;
40971;SDS011;26701;47.408;19.174;2023-08-12T04:54:52;750.17;;;698.80;;
40971;SDS011;26701;47.408;19.174;2023-08-12T04:57:20;755.03;;;703.45;;
40971;SDS011;26701;47.408;19.174;2023-08-12T04:59:46;754.25;;;703.08;;
40971;SDS011;26701;47.408;19.174;2023-08-12T05:02:14;757.30;;;706.53;;
40971;SDS011;26701;47.408;19.174;2023-08-12T05:04:40;758.58;;;708.17;;
40971;SDS011;26701;47.408;19.174;2023-08-12T05:07:07;761.70;;;711.83;;
40971;SDS011;26701;47.408;19.174;2023-08-12T05:09:34;770.17;;;719.10;;
40971;SDS011;26701;47.408;19.174;2023-08-12T05:12:00;771.75;;;720.95;;
40971;SDS011;26701;47.408;19.174;2023-08-12T05:14:27;771.55;;;720.55;;
40971;SDS011;26701;47.408;19.174;2023-08-12T05:16:53;779.88;;;728.50;;
40971;SDS011;26701;47.408;19.174;2023-08-12T05:19:20;777.00;;;725.10;;
40971;SDS011;26701;47.408;19.174;2023-08-12T05:21:46;784.97;;;731.88;;
40971;SDS011;26701;47.408;19.174;2023-08-12T05:24:12;787.35;;;735.30;;
40971;SDS011;26701;47.408;19.174;2023-08-12T05:26:38;791.95;;;739.83;;
40971;SDS011;26701;47.408;19.174;2023-08-12T05:29:04;802.20;;;749.05;;
40971;SDS011;26701;47.408;19.174;2023-08-12T05:31:30;795.05;;;743.58;;
40971;SDS011;26701;47.408;19.174;2023-08-12T05:33:57;797.95;;;746.47;;
40971;SDS011;26701;47.408;19.174;2023-08-12T05:36:23;806.55;;;753.67;;
40971;SDS011;26701;47.408;19.174;2023-08-12T05:38:49;810.25;;;757.97;;
40971;SDS011;26701;47.408;19.174;2023-08-12T05:41:15;809.08;;;757.10;;
40971;SDS011;26701;47.408;19.174;2023-08-12T05:43:41;809.70;;;757.92;;
40971;SDS011;26701;47.408;19.174;2023-08-12T05:46:07;821.78;;;768.13;;
40971;SDS011;26701;47.408;19.174;2023-08-12T05:48:33;822.90;;;769.65;;
40971;SDS011;26701;47.408;19.174;2023-08-12T05:50:59;830.05;;;775.25;;
40971;SDS011;26701;47.408;19.174;2023-08-12T05:53:25;833.17;;;778.47;;
40971;SDS011;26701;47.408;19.174;2023-08-12T05:55:51;843.88;;;787.22;;
40971;SDS011;26701;47.408;19.174;2023-08-12T05:58:17;856.50;;;796.88;;
40971;SDS011;26701;47.408;19.174;2023-08-12T06:00:45;852.55;;;793.38;;
40971;SDS011;26701;47.408;19.174;2023-08-12T06:03:11;855.03;;;797.00;;
40971;SDS011;26701;47.408;19.174;2023-08-12T06:05:39;861.47;;;803.53;;
40971;SDS011;26701;47.408;19.174;2023-08-12T06:08:05;856.20;;;797.63;;
40971;SDS011;26701;47.408;19.174;2023-08-12T06:10:33;857.03;;;800.42;;
40971;SDS011;26701;47.408;19.174;2023-08-12T06:12:59;865.58;;;808.53;;
40971;SDS011;26701;47.408;19.174;2023-08-12T06:15:26;873.45;;;815.95;;
40971;SDS011;26701;47.408;19.174;2023-08-12T06:17:52;877.83;;;820.17;;
40971;SDS011;26701;47.408;19.174;2023-08-12T06:20:18;878.80;;;821.08;;
40971;SDS011;26701;47.408;19.174;2023-08-12T06:22:44;894.60;;;835.03;;
40971;SDS011;26701;47.408;19.174;2023-08-12T06:25:10;883.35;;;827.15;;
40971;SDS011;26701;47.408;19.174;2023-08-12T06:27:37;894.22;;;834.95;;
40971;SDS011;26701;47.408;19.174;2023-08-12T06:30:04;895.97;;;838.58;;
40971;SDS011;26701;47.408;19.174;2023-08-12T06:32:31;897.50;;;840.42;;
40971;SDS011;26701;47.408;19.174;2023-08-12T06:34:57;914.92;;;851.58;;
40971;SDS011;26701;47.408;19.174;2023-08-12T06:37:23;902.45;;;845.33;;
40971;SDS011;26701;47.408;19.174;2023-08-12T06:39:49;912.65;;;854.75;;
40971;SDS011;26701;47.408;19.174;2023-08-12T06:42:15;904.35;;;848.75;;
40971;SDS011;26701;47.408;19.174;2023-08-12T06:44:44;896.33;;;842.45;;
40971;SDS011;26701;47.408;19.174;2023-08-12T06:47:11;895.25;;;841.67;;
40971;SDS011;26701;47.408;19.174;2023-08-12T06:49:37;898.70;;;845.55;;
40971;SDS011;26701;47.408;19.174;2023-08-12T06:52:03;887.95;;;835.25;;
40971;SDS011;26701;47.408;19.174;2023-08-12T06:54:29;898.60;;;845.00;;
40971;SDS011;26701;47.408;19.174;2023-08-12T06:56:55;898.88;;;845.60;;
40971;SDS011;26701;47.408;19.174;2023-08-12T06:59:21;873.85;;;822.97;;
40971;SDS011;26701;47.408;19.174;2023-08-12T07:01:47;891.00;;;839.10;;
40971;SDS011;26701;47.408;19.174;2023-08-12T07:04:13;850.55;;;800.50;;
40971;SDS011;26701;47.408;19.174;2023-08-12T07:06:40;864.20;;;813.65;;
40971;SDS011;26701;47.408;19.174;2023-08-12T07:09:06;863.92;;;813.40;;
40971;SDS011;26701;47.408;19.174;2023-08-12T07:11:32;868.70;;;817.83;;
40971;SDS011;26701;47.408;19.174;2023-08-12T07:13:58;890.95;;;838.72;;
40971;SDS011;26701;47.408;19.174;2023-08-12T07:16:24;875.55;;;824.28;;
40971;SDS011;26701;47.408;19.174;2023-08-12T07:18:50;881.10;;;829.55;;
40971;SDS011;26701;47.408;19.174;2023-08-12T07:21:16;897.03;;;844.42;;
40971;SDS011;26701;47.408;19.174;2023-08-12T07:23:42;907.05;;;853.45;;
40971;SDS011;26701;47.408;19.174;2023-08-12T07:26:09;916.47;;;862.75;;
40971;SDS011;26701;47.408;19.174;2023-08-12T07:28:35;923.83;;;868.75;;
40971;SDS011;26701;47.408;19.174;2023-08-12T07:31:02;939.10;;;882.83;;
40971;SDS011;26701;47.408;19.174;2023-08-12T07:33:28;924.45;;;869.47;;
40971;SDS011;26701;47.408;19.174;2023-08-12T07:35:54;935.25;;;879.42;;
40971;SDS011;26701;47.408;19.174;2023-08-12T07:38:20;956.17;;;899.03;;
40971;SDS011;26701;47.408;19.174;2023-08-12T07:40:47;949.65;;;892.78;;
40971;SDS011;26701;47.408;19.174;2023-08-12T07:43:14;939.17;;;883.35;;
40971;SDS011;26701;47.408;19.174;2023-08-12T07:45:40;960.70;;;902.75;;
40971;SDS011;26701;47.408;19.174;2023-08-12T07:48:06;960.35;;;902.95;;
40971;SDS011;26701;47.408;19.174;2023-08-12T07:50:32;966.53;;;908.05;;
40971;SDS011;26701;47.408;19.174;2023-08-12T07:52:58;990.92;;;931.20;;
40971;SDS011;26701;47.408;19.174;2023-08-12T07:55:24;995.55;;;935.15;;
40971;SDS011;26701;47.408;19.174;2023-08-12T07:57:50;997.58;;;936.92;;
40971;SDS011;26701;47.408;19.174;2023-08-12T08:00:18;1017.03;;;953.40;;
40971;SDS011;26701;47.408;19.174;2023-08-12T08:02:44;1027.13;;;960.83;;
40971;SDS011;26701;47.408;19.174;2023-08-12T08:05:10;1024.75;;;956.45;;
40971;SDS011;26701;47.408;19.174;2023-08-12T08:07:36;1003.47;;;942.30;;
40971;SDS011;26701;47.408;19.174;2023-08-12T08:10:02;1002.55;;;941.20;;
40971;SDS011;26701;47.408;19.174;2023-08-12T08:12:28;987.65;;;928.22;;
40971;SDS011;26701;47.408;19.174;2023-08-12T08:14:55;968.60;;;910.53;;
40971;SDS011;26701;47.408;19.174;2023-08-12T08:17:21;994.67;;;934.15;;
40971;SDS011;26701;47.408;19.174;2023-08-12T08:19:47;994.28;;;933.95;;
40971;SDS011;26701;47.408;19.174;2023-08-12T08:22:13;994.25;;;933.92;;
40971;SDS011;26701;47.408;19.174;2023-08-12T08:24:39;995.38;;;934.78;;
40971;SDS011;26701;47.408;19.174;2023-08-12T08:27:05;982.67;;;923.00;;
40971;SDS011;26701;47.408;19.174;2023-08-12T08:29:32;1004.20;;;942.83;;
40971;SDS011;26701;47.408;19.174;2023-08-12T08:31:58;1007.78;;;946.35;;
40971;SDS011;26701;47.408;19.174;2023-08-12T08:34:24;1014.22;;;952.00;;
40971;SDS011;26701;47.408;19.174;2023-08-12T08:36:50;1025.80;;;962.90;;
40971;SDS011;26701;47.408;19.174;2023-08-12T08:39:16;1038.22;;;973.78;;
40971;SDS011;26701;47.408;19.174;2023-08-12T08:41:42;1032.20;;;968.72;;
40971;SDS011;26701;47.408;19.174;2023-08-12T08:44:09;1017.25;;;954.72;;
40971;SDS011;26701;47.408;19.174;2023-08-12T08:46:36;1005.95;;;943.97;;
40971;SDS011;26701;47.408;19.174;2023-08-12T08:49:03;1017.53;;;954.45;;
40971;SDS011;26701;47.408;19.174;2023-08-12T08:51:31;1024.72;;;961.22;;
40971;SDS011;26701;47.408;19.174;2023-08-12T08:53:57;1017.70;;;954.90;;
40971;SDS011;26701;47.408;19.174;2023-08-12T08:56:23;1036.57;;;972.28;;
40971;SDS011;26701;47.408;19.174;2023-08-12T08:58:51;1023.72;;;960.05;;
40971;SDS011;26701;47.408;19.174;2023-08-12T09:01:19;1022.75;;;959.45;;
40971;SDS011;26701;47.408;19.174;2023-08-12T09:03:47;1024.68;;;961.15;;
40971;SDS011;26701;47.408;19.174;2023-08-12T09:06:13;1047.55;;;982.08;;
40971;SDS011;26701;47.408;19.174;2023-08-12T09:08:40;1046.95;;;981.58;;
40971;SDS011;26701;47.408;19.174;2023-08-12T09:11:10;1038.68;;;973.78;;
40971;SDS011;26701;47.408;19.174;2023-08-12T09:13:38;1044.88;;;979.35;;
40971;SDS011;26701;47.408;19.174;2023-08-12T09:16:04;1053.80;;;987.72;;
40971;SDS011;26701;47.408;19.174;2023-08-12T09:18:30;1041.43;;;976.25;;
40971;SDS011;26701;47.408;19.174;2023-08-12T09:20:56;1060.90;;;993.80;;
40971;SDS011;26701;47.408;19.174;2023-08-12T09:23:23;1073.25;;;999.55;;
40971;SDS011;26701;47.408;19.174;2023-08-12T09:25:49;1056.32;;;989.17;;
40971;SDS011;26701;47.408;19.174;2023-08-12T09:28:15;1057.97;;;990.72;;
40971;SDS011;26701;47.408;19.174;2023-08-12T09:30:41;1043.72;;;978.28;;
40971;SDS011;26701;47.408;19.174;2023-08-12T09:33:07;1067.60;;;998.60;;
40971;SDS011;26701;47.408;19.174;2023-08-12T09:35:38;1022.57;;;958.17;;
40971;SDS011;26701;47.408;19.174;2023-08-12T09:38:06;1040.43;;;974.35;;
40971;SDS011;26701;47.408;19.174;2023-08-12T09:40:37;1063.03;;;995.08;;
40971;SDS011;26701;47.408;19.174;2023-08-12T09:43:03;1079.38;;;999.90;;
40971;SDS011;26701;47.408;19.174;2023-08-12T09:45:33;1022.55;;;956.97;;
40971;SDS011;26701;47.408;19.174;2023-08-12T09:47:59;1039.05;;;971.20;;
40971;SDS011;26701;47.408;19.174;2023-08-12T09:50:26;1044.22;;;976.88;;
40971;SDS011;26701;47.408;19.174;2023-08-12T09:52:53;1054.47;;;985.63;;
40971;SDS011;26701;47.408;19.174;2023-08-12T09:55:20;1047.18;;;979.20;;
40971;SDS011;26701;47.408;19.174;2023-08-12T09:57:51;1043.03;;;974.65;;
40971;SDS011;26701;47.408;19.174;2023-08-12T10:00:18;1031.82;;;964.08;;
40971;SDS011;26701;47.408;19.174;2023-08-12T10:02:45;1023.08;;;955.22;;
40971;SDS011;26701;47.408;19.174;2023-08-12T10:05:12;1023.38;;;955.47;;
40971;SDS011;26701;47.408;19.174;2023-08-12T10:07:51;1004.00;;;936.85;;
40971;SDS011;26701;47.408;19.174;2023-08-12T10:10:18;985.33;;;918.97;;
40971;SDS011;26701;47.408;19.174;2023-08-12T10:12:45;872.85;;;813.42;;
40971;SDS011;26701;47.408;19.174;2023-08-12T10:15:12;888.30;;;828.13;;
40971;SDS011;26701;47.408;19.174;2023-08-12T10:17:40;953.70;;;888.45;;
40971;SDS011;26701;47.408;19.174;2023-08-12T10:20:08;937.00;;;872.50;;
40971;SDS011;26701;47.408;19.174;2023-08-12T10:22:34;875.80;;;815.58;;
40971;SDS011;26701;47.408;19.174;2023-08-12T10:25:01;893.22;;;831.35;;
40971;SDS011;26701;47.408;19.174;2023-08-12T10:27:29;826.40;;;769.60;;
40971;SDS011;26701;47.408;19.174;2023-08-12T10:29:58;841.63;;;782.90;;
40971;SDS011;26701;47.408;19.174;2023-08-12T10:32:24;647.75;;;602.97;;
40971;SDS011;26701;47.408;19.174;2023-08-12T10:34:55;592.70;;;552.28;;
40971;SDS011;26701;47.408;19.174;2023-08-12T10:37:23;574.67;;;535.28;;
40971;SDS011;26701;47.408;19.174;2023-08-12T10:39:51;535.38;;;499.02;;
40971;SDS011;26701;47.408;19.174;2023-08-12T10:45:09;548.00;;;510.30;;
40971;SDS011;26701;47.408;19.174;2023-08-12T10:47:49;548.53;;;511.10;;
40971;SDS011;26701;47.408;19.174;2023-08-12T10:50:34;557.80;;;519.55;;
40971;SDS011;26701;47.408;19.174;2023-08-12T10:53:20;553.97;;;515.78;;
40971;SDS011;26701;47.408;19.174;2023-08-12T10:55:56;563.33;;;524.53;;
40971;SDS011;26701;47.408;19.174;2023-08-12T10:58:27;598.58;;;556.63;;
40971;SDS011;26701;47.408;19.174;2023-08-12T11:03:21;619.13;;;575.20;;
40971;SDS011;26701;47.408;19.174;2023-08-12T11:05:47;707.40;;;656.95;;
40971;SDS011;26701;47.408;19.174;2023-08-12T11:08:13;792.30;;;735.45;;
40971;SDS011;26701;47.408;19.174;2023-08-12T11:10:39;736.42;;;683.83;;
40971;SDS011;26701;47.408;19.174;2023-08-12T11:13:08;680.13;;;631.30;;
40971;SDS011;26701;47.408;19.174;2023-08-12T11:15:39;697.08;;;646.83;;
40971;SDS011;26701;47.408;19.174;2023-08-12T11:18:08;709.75;;;657.80;;
40971;SDS011;26701;47.408;19.174;2023-08-12T11:20:35;655.25;;;607.80;;
40971;SDS011;26701;47.408;19.174;2023-08-12T11:23:02;743.47;;;689.50;;
40971;SDS011;26701;47.408;19.174;2023-08-12T11:25:30;685.75;;;635.80;;
40971;SDS011;26701;47.408;19.174;2023-08-12T11:27:57;653.42;;;605.20;;
40971;SDS011;26701;47.408;19.174;2023-08-12T11:30:23;669.10;;;619.90;;
40971;SDS011;26701;47.408;19.174;2023-08-12T11:32:50;623.03;;;577.20;;
40971;SDS011;26701;47.408;19.174;2023-08-12T11:35:18;562.00;;;521.47;;
40971;SDS011;26701;47.408;19.174;2023-08-12T11:37:46;609.08;;;564.33;;
40971;SDS011;26701;47.408;19.174;2023-08-12T11:40:14;543.25;;;504.25;;
40971;SDS011;26701;47.408;19.174;2023-08-12T11:42:44;517.65;;;480.60;;
40971;SDS011;26701;47.408;19.174;2023-08-12T11:45:11;527.70;;;489.70;;
40971;SDS011;26701;47.408;19.174;2023-08-12T11:47:38;508.05;;;471.77;;
40971;SDS011;26701;47.408;19.174;2023-08-12T11:50:05;533.30;;;494.95;;
40971;SDS011;26701;47.408;19.174;2023-08-12T11:52:31;521.70;;;483.75;;
40971;SDS011;26701;47.408;19.174;2023-08-12T11:54:58;606.00;;;562.17;;
40971;SDS011;26701;47.408;19.174;2023-08-12T11:57:24;593.35;;;550.50;;
40971;SDS011;26701;47.408;19.174;2023-08-12T11:59:53;578.45;;;537.08;;
40971;SDS011;26701;47.408;19.174;2023-08-12T12:02:23;580.85;;;539.25;;
40971;SDS011;26701;47.408;19.174;2023-08-12T12:04:51;582.80;;;541.05;;
40971;SDS011;26701;47.408;19.174;2023-08-12T12:07:24;556.72;;;517.15;;
40971;SDS011;26701;47.408;19.174;2023-08-12T12:09:53;542.80;;;504.50;;
40971;SDS011;26701;47.408;19.174;2023-08-12T12:12:23;549.17;;;508.67;;
40971;SDS011;26701;47.408;19.174;2023-08-12T12:14:52;502.38;;;467.08;;
40971;SDS011;26701;47.408;19.174;2023-08-12T12:19:59;429.75;;;400.05;;
40971;SDS011;26701;47.408;19.174;2023-08-12T12:24:53;667.20;;;617.85;;
40971;SDS011;26701;47.408;19.174;2023-08-12T12:27:19;472.45;;;438.50;;
40971;SDS011;26701;47.408;19.174;2023-08-12T12:29:45;682.05;;;630.97;;
40971;SDS011;26701;47.408;19.174;2023-08-12T12:32:11;778.63;;;720.67;;
40971;SDS011;26701;47.408;19.174;2023-08-12T12:34:38;850.65;;;787.08;;
40971;SDS011;26701;47.408;19.174;2023-08-12T12:37:04;805.95;;;745.55;;
40971;SDS011;26701;47.408;19.174;2023-08-12T12:39:30;628.63;;;582.63;;
40971;SDS011;26701;47.408;19.174;2023-08-12T12:41:56;669.58;;;620.58;;
40971;SDS011;26701;47.408;19.174;2023-08-12T12:44:24;714.38;;;662.17;;
40971;SDS011;26701;47.408;19.174;2023-08-12T12:46:50;651.63;;;603.58;;
40971;SDS011;26701;47.408;19.174;2023-08-12T12:49:16;564.80;;;523.33;;
40971;SDS011;26701;47.408;19.174;2023-08-12T12:51:42;536.15;;;497.38;;
40971;SDS011;26701;47.408;19.174;2023-08-12T12:54:08;597.42;;;553.55;;
40971;SDS011;26701;47.408;19.174;2023-08-12T12:56:34;645.00;;;598.45;;
40971;SDS011;26701;47.408;19.174;2023-08-12T12:59:00;773.30;;;717.65;;
40971;SDS011;26701;47.408;19.174;2023-08-12T13:01:26;587.90;;;546.78;;
40971;SDS011;26701;47.408;19.174;2023-08-12T13:03:52;632.35;;;587.65;;
40971;SDS011;26701;47.408;19.174;2023-08-12T13:06:18;606.33;;;564.08;;
40971;SDS011;26701;47.408;19.174;2023-08-12T13:08:43;589.67;;;548.97;;
40971;SDS011;26701;47.408;19.174;2023-08-12T13:11:09;640.08;;;592.92;;
40971;SDS011;26701;47.408;19.174;2023-08-12T13:13:35;602.75;;;560.78;;
40971;SDS011;26701;47.408;19.174;2023-08-12T13:16:02;610.83;;;568.67;;
40971;SDS011;26701;47.408;19.174;2023-08-12T13:18:28;643.70;;;598.53;;
40971;SDS011;26701;47.408;19.174;2023-08-12T13:20:54;620.60;;;577.30;;
40971;SDS011;26701;47.408;19.174;2023-08-12T13:23:20;610.25;;;567.97;;
40971;SDS011;26701;47.408;19.174;2023-08-12T13:25:46;644.78;;;599.95;;
40971;SDS011;26701;47.408;19.174;2023-08-12T13:28:12;633.13;;;589.50;;
40971;SDS011;26701;47.408;19.174;2023-08-12T13:30:38;644.55;;;600.03;;
40971;SDS011;26701;47.408;19.174;2023-08-12T13:33:04;650.42;;;605.58;;
40971;SDS011;26701;47.408;19.174;2023-08-12T13:35:31;743.90;;;692.25;;
40971;SDS011;26701;47.408;19.174;2023-08-12T13:37:57;664.60;;;618.95;;
40971;SDS011;26701;47.408;19.174;2023-08-12T13:40:23;653.05;;;608.35;;
40971;SDS011;26701;47.408;19.174;2023-08-12T13:42:49;636.45;;;593.00;;
40971;SDS011;26701;47.408;19.174;2023-08-12T13:45:15;592.53;;;552.75;;
40971;SDS011;26701;47.408;19.174;2023-08-12T13:47:42;582.65;;;543.80;;
40971;SDS011;26701;47.408;19.174;2023-08-12T13:50:08;604.22;;;563.55;;
40971;SDS011;26701;47.408;19.174;2023-08-12T13:52:34;633.90;;;590.83;;
40971;SDS011;26701;47.408;19.174;2023-08-12T13:55:00;694.67;;;646.70;;
40971;SDS011;26701;47.408;19.174;2023-08-12T13:57:26;787.13;;;733.00;;